sensor_id;sensor_type;location;lat;lon;timestamp;P1;durP1;ratioP1;P2;durP2;ratioP2
30466;SDS011;17258;52.560;13.046;2022-11-15T00:07:30;9.45;;;8.05;;
30466;SDS011;17258;52.560;13.046;2022-11-15T00:17:30;10.37;;;7.80;;
30466;SDS011;17258;52.560;13.046;2022-11-15T00:27:31;11.43;;;9.50;;
30466;SDS011;17258;52.560;13.046;2022-11-15T00:37:32;11.67;;;10.10;;
30466;SDS011;17258;52.560;13.046;2022-11-15T00:47:32;13.40;;;12.00;;
30466;SDS011;17258;52.560;13.046;2022-11-15T00:57:33;13.53;;;10.63;;
30466;SDS011;17258;52.560;13.046;2022-11-15T01:07:34;13.93;;;11.60;;
30466;SDS011;17258;52.560;13.046;2022-11-15T01:17:35;11.38;;;9.27;;
30466;SDS011;17258;52.560;13.046;2022-11-15T01:27:35;13.13;;;11.43;;
30466;SDS011;17258;52.560;13.046;2022-11-15T01:37:36;11.37;;;10.17;;
30466;SDS011;17258;52.560;13.046;2022-11-15T01:47:38;12.17;;;11.07;;
30466;SDS011;17258;52.560;13.046;2022-11-15T01:57:46;14.82;;;12.45;;
30466;SDS011;17258;52.560;13.046;2022-11-15T02:07:51;12.45;;;10.43;;
30466;SDS011;17258;52.560;13.046;2022-11-15T02:28:44;12.68;;;9.85;;
30466;SDS011;17258;52.560;13.046;2022-11-15T02:39:10;13.48;;;10.02;;
30466;SDS011;17258;52.560;13.046;2022-11-15T02:49:24;11.77;;;10.55;;
30466;SDS011;17258;52.560;13.046;2022-11-15T02:59:46;11.30;;;10.18;;
30466;SDS011;17258;52.560;13.046;2022-11-15T03:10:17;11.55;;;9.88;;
30466;SDS011;17258;52.560;13.046;2022-11-15T03:20:26;12.95;;;11.75;;
30466;SDS011;17258;52.560;13.046;2022-11-15T03:30:29;11.90;;;10.68;;
30466;SDS011;17258;52.560;13.046;2022-11-15T03:40:42;12.60;;;11.30;;
30466;SDS011;17258;52.560;13.046;2022-11-15T03:50:51;13.05;;;11.00;;
30466;SDS011;17258;52.560;13.046;2022-11-15T04:00:53;12.88;;;11.30;;
30466;SDS011;17258;52.560;13.046;2022-11-15T04:10:54;11.45;;;10.20;;
30466;SDS011;17258;52.560;13.046;2022-11-15T04:20:54;15.70;;;11.17;;
30466;SDS011;17258;52.560;13.046;2022-11-15T04:31:13;11.25;;;10.05;;
30466;SDS011;17258;52.560;13.046;2022-11-15T04:41:14;12.33;;;11.10;;
30466;SDS011;17258;52.560;13.046;2022-11-15T04:51:15;8.00;;;7.33;;
30466;SDS011;17258;52.560;13.046;2022-11-15T05:01:16;11.70;;;10.63;;
30466;SDS011;17258;52.560;13.046;2022-11-15T05:11:17;14.02;;;12.60;;
30466;SDS011;17258;52.560;13.046;2022-11-15T05:21:18;13.10;;;11.73;;
30466;SDS011;17258;52.560;13.046;2022-11-15T05:31:19;17.90;;;11.70;;
30466;SDS011;17258;52.560;13.046;2022-11-15T05:41:20;10.82;;;9.70;;
30466;SDS011;17258;52.560;13.046;2022-11-15T05:51:28;9.30;;;8.02;;
30466;SDS011;17258;52.560;13.046;2022-11-15T06:01:29;9.48;;;8.25;;
30466;SDS011;17258;52.560;13.046;2022-11-15T06:11:30;12.68;;;10.52;;
30466;SDS011;17258;52.560;13.046;2022-11-15T06:21:31;9.77;;;8.77;;
30466;SDS011;17258;52.560;13.046;2022-11-15T06:31:32;14.37;;;9.97;;
30466;SDS011;17258;52.560;13.046;2022-11-15T06:41:34;12.25;;;10.40;;
30466;SDS011;17258;52.560;13.046;2022-11-15T06:51:35;11.52;;;9.63;;
30466;SDS011;17258;52.560;13.046;2022-11-15T07:01:36;11.73;;;9.75;;
30466;SDS011;17258;52.560;13.046;2022-11-15T07:11:37;11.37;;;9.83;;
30466;SDS011;17258;52.560;13.046;2022-11-15T07:21:38;11.10;;;9.80;;
30466;SDS011;17258;52.560;13.046;2022-11-15T07:31:39;12.73;;;10.87;;
30466;SDS011;17258;52.560;13.046;2022-11-15T07:41:40;10.93;;;9.73;;
30466;SDS011;17258;52.560;13.046;2022-11-15T07:51:40;10.97;;;9.93;;
30466;SDS011;17258;52.560;13.046;2022-11-15T08:01:41;11.43;;;10.23;;
30466;SDS011;17258;52.560;13.046;2022-11-15T08:11:41;12.50;;;11.37;;
30466;SDS011;17258;52.560;13.046;2022-11-15T08:21:42;12.57;;;10.80;;
30466;SDS011;17258;52.560;13.046;2022-11-15T08:31:43;11.93;;;10.70;;
30466;SDS011;17258;52.560;13.046;2022-11-15T08:41:44;14.10;;;11.23;;
30466;SDS011;17258;52.560;13.046;2022-11-15T08:51:44;13.87;;;10.37;;
30466;SDS011;17258;52.560;13.046;2022-11-15T09:01:45;12.60;;;11.30;;
30466;SDS011;17258;52.560;13.046;2022-11-15T09:11:45;12.83;;;11.47;;
30466;SDS011;17258;52.560;13.046;2022-11-15T09:21:46;11.17;;;10.10;;
30466;SDS011;17258;52.560;13.046;2022-11-15T09:31:47;12.32;;;10.70;;
30466;SDS011;17258;52.560;13.046;2022-11-15T09:41:50;11.37;;;9.93;;
30466;SDS011;17258;52.560;13.046;2022-11-15T09:52:10;11.38;;;10.18;;
30466;SDS011;17258;52.560;13.046;2022-11-15T10:12:33;9.68;;;8.75;;
30466;SDS011;17258;52.560;13.046;2022-11-15T10:32:50;8.82;;;8.05;;
30466;SDS011;17258;52.560;13.046;2022-11-15T11:03:44;8.45;;;6.90;;
30466;SDS011;17258;52.560;13.046;2022-11-15T11:14:11;9.18;;;8.30;;
30466;SDS011;17258;52.560;13.046;2022-11-15T11:24:15;12.73;;;11.68;;
30466;SDS011;17258;52.560;13.046;2022-11-15T11:35:05;14.30;;;13.30;;
30466;SDS011;17258;52.560;13.046;2022-11-15T11:45:15;13.15;;;12.05;;
30466;SDS011;17258;52.560;13.046;2022-11-15T11:55:41;13.10;;;12.10;;
30466;SDS011;17258;52.560;13.046;2022-11-15T12:05:48;13.38;;;12.07;;
30466;SDS011;17258;52.560;13.046;2022-11-15T12:15:59;12.65;;;11.55;;
30466;SDS011;17258;52.560;13.046;2022-11-15T12:26:14;10.85;;;10.02;;
30466;SDS011;17258;52.560;13.046;2022-11-15T12:46:58;7.20;;;5.75;;
30466;SDS011;17258;52.560;13.046;2022-11-15T12:56:44;7.10;;;6.20;;
30466;SDS011;17258;52.560;13.046;2022-11-15T13:06:46;8.77;;;5.73;;
30466;SDS011;17258;52.560;13.046;2022-11-15T13:16:57;7.05;;;4.72;;
30466;SDS011;17258;52.560;13.046;2022-11-15T13:26:59;10.43;;;6.00;;
30466;SDS011;17258;52.560;13.046;2022-11-15T13:37:00;6.33;;;5.77;;
30466;SDS011;17258;52.560;13.046;2022-11-15T13:57:15;6.63;;;6.03;;
30466;SDS011;17258;52.560;13.046;2022-11-15T14:07:22;6.68;;;4.93;;
30466;SDS011;17258;52.560;13.046;2022-11-15T14:27:29;6.45;;;5.80;;
30466;SDS011;17258;52.560;13.046;2022-11-15T14:37:31;6.50;;;5.90;;
30466;SDS011;17258;52.560;13.046;2022-11-15T14:47:34;7.50;;;6.45;;
30466;SDS011;17258;52.560;13.046;2022-11-15T14:57:35;6.93;;;6.23;;
30466;SDS011;17258;52.560;13.046;2022-11-15T15:07:35;5.33;;;4.93;;
30466;SDS011;17258;52.560;13.046;2022-11-15T15:17:36;7.93;;;7.13;;
30466;SDS011;17258;52.560;13.046;2022-11-15T15:27:37;7.07;;;6.43;;
30466;SDS011;17258;52.560;13.046;2022-11-15T15:37:37;11.07;;;7.33;;
30466;SDS011;17258;52.560;13.046;2022-11-15T15:47:38;8.10;;;7.30;;
30466;SDS011;17258;52.560;13.046;2022-11-15T15:57:39;7.25;;;6.55;;
30466;SDS011;17258;52.560;13.046;2022-11-15T16:07:39;8.20;;;7.20;;
30466;SDS011;17258;52.560;13.046;2022-11-15T16:17:53;8.27;;;6.68;;
30466;SDS011;17258;52.560;13.046;2022-11-15T16:27:56;12.25;;;9.85;;
30466;SDS011;17258;52.560;13.046;2022-11-15T16:37:57;12.07;;;9.20;;
30466;SDS011;17258;52.560;13.046;2022-11-15T16:47:57;10.17;;;9.23;;
30466;SDS011;17258;52.560;13.046;2022-11-15T16:57:58;8.73;;;7.83;;
30466;SDS011;17258;52.560;13.046;2022-11-15T17:08:00;12.45;;;11.15;;
30466;SDS011;17258;52.560;13.046;2022-11-15T17:18:00;12.73;;;11.53;;
30466;SDS011;17258;52.560;13.046;2022-11-15T17:28:01;16.57;;;13.43;;
30466;SDS011;17258;52.560;13.046;2022-11-15T17:38:02;17.13;;;14.53;;
30466;SDS011;17258;52.560;13.046;2022-11-15T17:48:02;9.67;;;8.67;;
30466;SDS011;17258;52.560;13.046;2022-11-15T17:58:03;9.37;;;8.33;;
30466;SDS011;17258;52.560;13.046;2022-11-15T18:08:04;12.47;;;10.33;;
30466;SDS011;17258;52.560;13.046;2022-11-15T18:18:04;17.83;;;14.63;;
30466;SDS011;17258;52.560;13.046;2022-11-15T18:28:05;13.13;;;11.53;;
30466;SDS011;17258;52.560;13.046;2022-11-15T18:38:06;11.37;;;10.27;;
30466;SDS011;17258;52.560;13.046;2022-11-15T18:48:06;13.50;;;11.47;;
30466;SDS011;17258;52.560;13.046;2022-11-15T18:58:07;13.60;;;12.33;;
30466;SDS011;17258;52.560;13.046;2022-11-15T19:08:07;15.30;;;13.50;;
30466;SDS011;17258;52.560;13.046;2022-11-15T19:18:08;15.23;;;13.73;;
30466;SDS011;17258;52.560;13.046;2022-11-15T19:28:09;15.73;;;14.10;;
30466;SDS011;17258;52.560;13.046;2022-11-15T19:38:10;19.40;;;15.15;;
30466;SDS011;17258;52.560;13.046;2022-11-15T19:48:11;17.75;;;14.60;;
30466;SDS011;17258;52.560;13.046;2022-11-15T19:58:12;16.10;;;13.93;;
30466;SDS011;17258;52.560;13.046;2022-11-15T20:08:12;15.13;;;13.73;;
30466;SDS011;17258;52.560;13.046;2022-11-15T20:18:13;20.73;;;15.23;;
30466;SDS011;17258;52.560;13.046;2022-11-15T20:28:15;23.40;;;17.97;;
30466;SDS011;17258;52.560;13.046;2022-11-15T20:38:20;19.90;;;17.45;;
30466;SDS011;17258;52.560;13.046;2022-11-15T20:48:22;21.10;;;17.05;;
30466;SDS011;17258;52.560;13.046;2022-11-15T20:58:22;16.90;;;15.10;;
30466;SDS011;17258;52.560;13.046;2022-11-15T21:08:27;20.67;;;15.85;;
30466;SDS011;17258;52.560;13.046;2022-11-15T21:18:48;21.65;;;17.88;;
30466;SDS011;17258;52.560;13.046;2022-11-15T21:28:48;18.10;;;15.17;;
30466;SDS011;17258;52.560;13.046;2022-11-15T21:38:49;25.03;;;17.43;;
30466;SDS011;17258;52.560;13.046;2022-11-15T21:48:49;17.40;;;15.27;;
30466;SDS011;17258;52.560;13.046;2022-11-15T21:58:51;17.83;;;15.50;;
30466;SDS011;17258;52.560;13.046;2022-11-15T22:08:52;15.70;;;14.25;;
30466;SDS011;17258;52.560;13.046;2022-11-15T22:18:53;12.93;;;11.67;;
30466;SDS011;17258;52.560;13.046;2022-11-15T22:28:54;16.27;;;14.52;;
30466;SDS011;17258;52.560;13.046;2022-11-15T22:38:54;13.60;;;11.60;;
30466;SDS011;17258;52.560;13.046;2022-11-15T22:48:55;15.77;;;13.60;;
30466;SDS011;17258;52.560;13.046;2022-11-15T22:58:56;17.63;;;12.83;;
30466;SDS011;17258;52.560;13.046;2022-11-15T23:08:56;14.73;;;13.20;;
30466;SDS011;17258;52.560;13.046;2022-11-15T23:18:57;14.27;;;12.77;;
30466;SDS011;17258;52.560;13.046;2022-11-15T23:29:01;13.52;;;12.20;;
30466;SDS011;17258;52.560;13.046;2022-11-15T23:39:03;13.15;;;11.50;;
30466;SDS011;17258;52.560;13.046;2022-11-15T23:49:03;15.98;;;12.95;;
30466;SDS011;17258;52.560;13.046;2022-11-15T23:59:04;16.83;;;13.80;;
